Port Charlotte, Florida
Current Conditions -  °F | °C
As of 1:53 AM on Thursday 23 Oct 2014 (Local Time) from KPGD Reporting Station
Clear Clear  
Wind Chill: 70°   Ceiling: Unl
Heat Index: 70°   Visibility: 10mi
Dew Point: 65°   Wind: 8mph
Humidity: 84%   Direction: 60°ENE
Pressure: 29.96"   Gusts: NA
Location:  26.98°N, 82.1°W
Report Text: KPGD 230553Z AUTO 06007KT 10SM CLR 21/18 A2996 RMK AO2 SLP145 T02110183 10250 20211 58002
Loading
Personal Weather Stations






























Interactive Weather Map New forecast layout! Learn more

10-Day Weather Forecast

Advertisements
Track Severe Weather on mobile